sensor_id;sensor_type;location;lat;lon;timestamp;P1;durP1;ratioP1;P2;durP2;ratioP2
40611;SDS011;26317;44.894;20.286;2024-01-15T00:01:00;135.57;;;94.63;;
40611;SDS011;26317;44.894;20.286;2024-01-15T00:03:40;137.35;;;93.18;;
40611;SDS011;26317;44.894;20.286;2024-01-15T00:06:14;140.68;;;97.05;;
40611;SDS011;26317;44.894;20.286;2024-01-15T00:08:53;133.93;;;92.95;;
40611;SDS011;26317;44.894;20.286;2024-01-15T00:11:34;143.20;;;93.35;;
40611;SDS011;26317;44.894;20.286;2024-01-15T00:14:25;135.50;;;93.50;;
40611;SDS011;26317;44.894;20.286;2024-01-15T00:17:03;134.18;;;93.18;;
40611;SDS011;26317;44.894;20.286;2024-01-15T00:19:43;126.22;;;90.20;;
40611;SDS011;26317;44.894;20.286;2024-01-15T00:22:26;136.05;;;93.07;;
40611;SDS011;26317;44.894;20.286;2024-01-15T00:25:06;136.55;;;93.20;;
40611;SDS011;26317;44.894;20.286;2024-01-15T00:27:44;132.45;;;89.18;;
40611;SDS011;26317;44.894;20.286;2024-01-15T00:30:42;131.80;;;89.57;;
40611;SDS011;26317;44.894;20.286;2024-01-15T00:36:04;132.40;;;92.47;;
40611;SDS011;26317;44.894;20.286;2024-01-15T00:38:43;126.57;;;91.95;;
40611;SDS011;26317;44.894;20.286;2024-01-15T00:41:19;124.30;;;88.05;;
40611;SDS011;26317;44.894;20.286;2024-01-15T00:43:55;117.22;;;81.38;;
40611;SDS011;26317;44.894;20.286;2024-01-15T00:46:48;105.40;;;74.85;;
40611;SDS011;26317;44.894;20.286;2024-01-15T00:49:28;102.82;;;74.95;;
40611;SDS011;26317;44.894;20.286;2024-01-15T00:52:02;93.93;;;68.65;;
40611;SDS011;26317;44.894;20.286;2024-01-15T00:54:38;87.07;;;61.20;;
40611;SDS011;26317;44.894;20.286;2024-01-15T00:57:22;81.18;;;59.55;;
40611;SDS011;26317;44.894;20.286;2024-01-15T00:59:59;90.38;;;60.72;;
40611;SDS011;26317;44.894;20.286;2024-01-15T01:02:44;75.90;;;53.50;;
40611;SDS011;26317;44.894;20.286;2024-01-15T01:05:25;75.20;;;53.55;;
40611;SDS011;26317;44.894;20.286;2024-01-15T01:08:05;72.13;;;50.45;;
40611;SDS011;26317;44.894;20.286;2024-01-15T01:10:43;75.13;;;51.58;;
40611;SDS011;26317;44.894;20.286;2024-01-15T01:13:19;68.90;;;47.38;;
40611;SDS011;26317;44.894;20.286;2024-01-15T01:15:56;72.53;;;48.28;;
40611;SDS011;26317;44.894;20.286;2024-01-15T01:18:32;67.22;;;48.50;;
40611;SDS011;26317;44.894;20.286;2024-01-15T01:21:08;65.70;;;45.85;;
40611;SDS011;26317;44.894;20.286;2024-01-15T01:23:51;58.05;;;40.65;;
40611;SDS011;26317;44.894;20.286;2024-01-15T01:26:28;59.83;;;42.80;;
40611;SDS011;26317;44.894;20.286;2024-01-15T01:29:13;49.90;;;37.65;;
40611;SDS011;26317;44.894;20.286;2024-01-15T01:31:52;51.90;;;36.58;;
40611;SDS011;26317;44.894;20.286;2024-01-15T01:34:51;50.22;;;34.10;;
40611;SDS011;26317;44.894;20.286;2024-01-15T01:37:32;53.47;;;36.53;;
40611;SDS011;26317;44.894;20.286;2024-01-15T01:40:15;45.65;;;32.35;;
40611;SDS011;26317;44.894;20.286;2024-01-15T01:42:51;45.50;;;32.33;;
40611;SDS011;26317;44.894;20.286;2024-01-15T01:45:39;50.00;;;36.55;;
40611;SDS011;26317;44.894;20.286;2024-01-15T01:48:16;47.75;;;34.83;;
40611;SDS011;26317;44.894;20.286;2024-01-15T01:51:11;49.25;;;33.47;;
40611;SDS011;26317;44.894;20.286;2024-01-15T01:53:47;45.45;;;33.55;;
40611;SDS011;26317;44.894;20.286;2024-01-15T01:56:29;46.50;;;33.47;;
40611;SDS011;26317;44.894;20.286;2024-01-15T01:59:11;44.25;;;33.25;;
40611;SDS011;26317;44.894;20.286;2024-01-15T02:01:48;44.78;;;31.65;;
40611;SDS011;26317;44.894;20.286;2024-01-15T02:04:36;38.40;;;29.02;;
40611;SDS011;26317;44.894;20.286;2024-01-15T02:07:23;41.58;;;29.50;;
40611;SDS011;26317;44.894;20.286;2024-01-15T02:09:58;37.25;;;27.67;;
40611;SDS011;26317;44.894;20.286;2024-01-15T02:12:40;37.05;;;25.92;;
40611;SDS011;26317;44.894;20.286;2024-01-15T02:18:02;31.75;;;24.67;;
40611;SDS011;26317;44.894;20.286;2024-01-15T02:20:44;36.35;;;27.10;;
40611;SDS011;26317;44.894;20.286;2024-01-15T02:23:39;35.47;;;23.52;;
40611;SDS011;26317;44.894;20.286;2024-01-15T02:29:03;32.30;;;23.98;;
40611;SDS011;26317;44.894;20.286;2024-01-15T02:31:42;29.52;;;21.60;;
40611;SDS011;26317;44.894;20.286;2024-01-15T02:34:46;28.67;;;21.17;;
40611;SDS011;26317;44.894;20.286;2024-01-15T02:37:31;27.73;;;19.58;;
40611;SDS011;26317;44.894;20.286;2024-01-15T02:40:14;24.33;;;17.80;;
40611;SDS011;26317;44.894;20.286;2024-01-15T02:42:56;26.45;;;19.80;;
40611;SDS011;26317;44.894;20.286;2024-01-15T02:45:34;29.48;;;19.83;;
40611;SDS011;26317;44.894;20.286;2024-01-15T02:48:29;24.27;;;17.55;;
40611;SDS011;26317;44.894;20.286;2024-01-15T02:51:08;27.35;;;18.15;;
40611;SDS011;26317;44.894;20.286;2024-01-15T02:53:44;23.17;;;16.33;;
40611;SDS011;26317;44.894;20.286;2024-01-15T02:56:32;22.65;;;17.35;;
40611;SDS011;26317;44.894;20.286;2024-01-15T02:59:11;24.50;;;17.13;;
40611;SDS011;26317;44.894;20.286;2024-01-15T03:01:43;21.02;;;16.23;;
40611;SDS011;26317;44.894;20.286;2024-01-15T03:04:27;19.08;;;15.02;;
40611;SDS011;26317;44.894;20.286;2024-01-15T03:07:03;20.27;;;16.58;;
40611;SDS011;26317;44.894;20.286;2024-01-15T03:09:47;19.58;;;14.40;;
40611;SDS011;26317;44.894;20.286;2024-01-15T03:12:31;19.55;;;14.50;;
40611;SDS011;26317;44.894;20.286;2024-01-15T03:15:11;18.42;;;13.38;;
40611;SDS011;26317;44.894;20.286;2024-01-15T03:17:49;17.00;;;13.20;;
40611;SDS011;26317;44.894;20.286;2024-01-15T03:20:28;17.27;;;12.88;;
40611;SDS011;26317;44.894;20.286;2024-01-15T03:23:07;15.77;;;12.32;;
40611;SDS011;26317;44.894;20.286;2024-01-15T03:25:52;15.70;;;12.00;;
40611;SDS011;26317;44.894;20.286;2024-01-15T03:28:39;16.08;;;12.80;;
40611;SDS011;26317;44.894;20.286;2024-01-15T03:31:16;16.35;;;12.30;;
40611;SDS011;26317;44.894;20.286;2024-01-15T03:33:56;15.00;;;12.40;;
40611;SDS011;26317;44.894;20.286;2024-01-15T03:36:36;14.32;;;11.75;;
40611;SDS011;26317;44.894;20.286;2024-01-15T03:39:15;15.65;;;11.80;;
40611;SDS011;26317;44.894;20.286;2024-01-15T03:42:09;14.45;;;11.70;;
40611;SDS011;26317;44.894;20.286;2024-01-15T03:44:57;17.30;;;12.27;;
40611;SDS011;26317;44.894;20.286;2024-01-15T03:47:39;16.02;;;11.52;;
40611;SDS011;26317;44.894;20.286;2024-01-15T03:50:24;16.33;;;12.75;;
40611;SDS011;26317;44.894;20.286;2024-01-15T03:53:08;14.55;;;11.15;;
40611;SDS011;26317;44.894;20.286;2024-01-15T03:55:51;14.57;;;11.35;;
40611;SDS011;26317;44.894;20.286;2024-01-15T03:58:34;14.98;;;11.25;;
40611;SDS011;26317;44.894;20.286;2024-01-15T04:01:28;16.85;;;12.35;;
40611;SDS011;26317;44.894;20.286;2024-01-15T04:04:06;15.00;;;11.50;;
40611;SDS011;26317;44.894;20.286;2024-01-15T04:06:48;19.73;;;13.88;;
40611;SDS011;26317;44.894;20.286;2024-01-15T04:09:21;16.52;;;12.20;;
40611;SDS011;26317;44.894;20.286;2024-01-15T04:12:04;21.38;;;19.08;;
40611;SDS011;26317;44.894;20.286;2024-01-15T04:14:42;19.83;;;15.40;;
40611;SDS011;26317;44.894;20.286;2024-01-15T04:17:33;15.80;;;12.75;;
40611;SDS011;26317;44.894;20.286;2024-01-15T04:20:10;27.35;;;20.17;;
40611;SDS011;26317;44.894;20.286;2024-01-15T04:22:54;19.00;;;13.75;;
40611;SDS011;26317;44.894;20.286;2024-01-15T04:25:31;17.92;;;12.32;;
40611;SDS011;26317;44.894;20.286;2024-01-15T04:28:17;17.50;;;12.57;;
40611;SDS011;26317;44.894;20.286;2024-01-15T04:30:53;13.60;;;11.10;;
40611;SDS011;26317;44.894;20.286;2024-01-15T04:33:37;14.68;;;12.23;;
40611;SDS011;26317;44.894;20.286;2024-01-15T04:36:14;11.88;;;9.73;;
40611;SDS011;26317;44.894;20.286;2024-01-15T04:38:50;12.63;;;9.05;;
40611;SDS011;26317;44.894;20.286;2024-01-15T04:41:25;12.18;;;9.40;;
40611;SDS011;26317;44.894;20.286;2024-01-15T04:44:02;11.25;;;8.98;;
40611;SDS011;26317;44.894;20.286;2024-01-15T04:46:45;10.95;;;8.65;;
40611;SDS011;26317;44.894;20.286;2024-01-15T04:49:37;13.00;;;8.77;;
40611;SDS011;26317;44.894;20.286;2024-01-15T04:52:23;11.65;;;8.48;;
40611;SDS011;26317;44.894;20.286;2024-01-15T04:55:01;10.32;;;7.43;;
40611;SDS011;26317;44.894;20.286;2024-01-15T04:57:35;8.98;;;7.45;;
40611;SDS011;26317;44.894;20.286;2024-01-15T05:00:13;10.60;;;7.97;;
40611;SDS011;26317;44.894;20.286;2024-01-15T05:02:57;9.02;;;7.20;;
40611;SDS011;26317;44.894;20.286;2024-01-15T05:05:44;11.48;;;7.43;;
40611;SDS011;26317;44.894;20.286;2024-01-15T05:08:24;10.48;;;8.35;;
40611;SDS011;26317;44.894;20.286;2024-01-15T05:11:00;9.63;;;7.80;;
40611;SDS011;26317;44.894;20.286;2024-01-15T05:13:47;11.25;;;8.25;;
40611;SDS011;26317;44.894;20.286;2024-01-15T05:16:31;11.07;;;7.93;;
40611;SDS011;26317;44.894;20.286;2024-01-15T05:19:17;10.63;;;8.07;;
40611;SDS011;26317;44.894;20.286;2024-01-15T05:22:11;9.45;;;8.00;;
40611;SDS011;26317;44.894;20.286;2024-01-15T05:24:55;10.82;;;8.43;;
40611;SDS011;26317;44.894;20.286;2024-01-15T05:27:35;9.88;;;7.88;;
40611;SDS011;26317;44.894;20.286;2024-01-15T05:30:15;11.85;;;9.38;;
40611;SDS011;26317;44.894;20.286;2024-01-15T05:32:53;10.55;;;8.57;;
40611;SDS011;26317;44.894;20.286;2024-01-15T05:35:52;11.25;;;8.48;;
40611;SDS011;26317;44.894;20.286;2024-01-15T05:38:33;11.63;;;8.48;;
40611;SDS011;26317;44.894;20.286;2024-01-15T05:41:10;9.90;;;7.13;;
40611;SDS011;26317;44.894;20.286;2024-01-15T05:43:56;13.32;;;9.32;;
40611;SDS011;26317;44.894;20.286;2024-01-15T05:46:42;11.30;;;8.60;;
40611;SDS011;26317;44.894;20.286;2024-01-15T05:49:25;10.18;;;8.65;;
40611;SDS011;26317;44.894;20.286;2024-01-15T05:52:08;10.63;;;8.68;;
40611;SDS011;26317;44.894;20.286;2024-01-15T05:54:52;12.25;;;7.85;;
40611;SDS011;26317;44.894;20.286;2024-01-15T05:57:30;9.30;;;7.72;;
40611;SDS011;26317;44.894;20.286;2024-01-15T06:00:08;11.27;;;8.50;;
40611;SDS011;26317;44.894;20.286;2024-01-15T06:02:44;11.88;;;8.80;;
40611;SDS011;26317;44.894;20.286;2024-01-15T06:05:28;9.93;;;8.13;;
40611;SDS011;26317;44.894;20.286;2024-01-15T06:08:11;10.20;;;8.15;;
40611;SDS011;26317;44.894;20.286;2024-01-15T06:11:01;12.13;;;9.05;;
40611;SDS011;26317;44.894;20.286;2024-01-15T06:13:35;11.10;;;8.85;;
40611;SDS011;26317;44.894;20.286;2024-01-15T06:16:11;9.80;;;8.38;;
40611;SDS011;26317;44.894;20.286;2024-01-15T06:18:48;11.45;;;8.43;;
40611;SDS011;26317;44.894;20.286;2024-01-15T06:21:21;18.23;;;10.55;;
40611;SDS011;26317;44.894;20.286;2024-01-15T06:23:55;15.07;;;11.32;;
40611;SDS011;26317;44.894;20.286;2024-01-15T06:26:43;13.63;;;10.43;;
40611;SDS011;26317;44.894;20.286;2024-01-15T06:29:15;17.52;;;12.38;;
40611;SDS011;26317;44.894;20.286;2024-01-15T06:31:55;26.17;;;16.53;;
40611;SDS011;26317;44.894;20.286;2024-01-15T06:34:34;22.50;;;15.63;;
40611;SDS011;26317;44.894;20.286;2024-01-15T06:37:09;25.52;;;16.90;;
40611;SDS011;26317;44.894;20.286;2024-01-15T06:42:31;26.23;;;17.50;;
40611;SDS011;26317;44.894;20.286;2024-01-15T06:45:08;20.80;;;14.70;;
40611;SDS011;26317;44.894;20.286;2024-01-15T06:47:49;18.58;;;12.80;;
40611;SDS011;26317;44.894;20.286;2024-01-15T06:50:25;16.45;;;11.48;;
40611;SDS011;26317;44.894;20.286;2024-01-15T06:53:07;17.85;;;12.02;;
40611;SDS011;26317;44.894;20.286;2024-01-15T06:56:07;17.58;;;11.75;;
40611;SDS011;26317;44.894;20.286;2024-01-15T06:58:53;15.48;;;11.10;;
40611;SDS011;26317;44.894;20.286;2024-01-15T07:01:37;18.25;;;11.95;;
40611;SDS011;26317;44.894;20.286;2024-01-15T07:04:14;22.60;;;15.18;;
40611;SDS011;26317;44.894;20.286;2024-01-15T07:06:52;26.10;;;15.10;;
40611;SDS011;26317;44.894;20.286;2024-01-15T07:09:31;17.52;;;14.25;;
40611;SDS011;26317;44.894;20.286;2024-01-15T07:12:12;10.15;;;9.07;;
40611;SDS011;26317;44.894;20.286;2024-01-15T07:14:54;13.52;;;9.40;;
40611;SDS011;26317;44.894;20.286;2024-01-15T07:17:43;11.60;;;8.85;;
40611;SDS011;26317;44.894;20.286;2024-01-15T07:20:22;18.10;;;11.73;;
40611;SDS011;26317;44.894;20.286;2024-01-15T07:22:58;15.00;;;11.23;;
40611;SDS011;26317;44.894;20.286;2024-01-15T07:25:38;12.20;;;9.25;;
40611;SDS011;26317;44.894;20.286;2024-01-15T07:28:17;14.13;;;10.70;;
40611;SDS011;26317;44.894;20.286;2024-01-15T07:31:24;13.75;;;10.00;;
40611;SDS011;26317;44.894;20.286;2024-01-15T07:34:16;12.57;;;10.10;;
40611;SDS011;26317;44.894;20.286;2024-01-15T07:36:56;14.63;;;10.13;;
40611;SDS011;26317;44.894;20.286;2024-01-15T07:39:45;12.77;;;9.95;;
40611;SDS011;26317;44.894;20.286;2024-01-15T07:42:25;14.25;;;10.20;;
40611;SDS011;26317;44.894;20.286;2024-01-15T07:45:06;12.23;;;9.85;;
40611;SDS011;26317;44.894;20.286;2024-01-15T07:47:58;17.10;;;10.43;;
40611;SDS011;26317;44.894;20.286;2024-01-15T07:50:36;13.68;;;10.07;;
40611;SDS011;26317;44.894;20.286;2024-01-15T07:53:08;13.98;;;11.48;;
40611;SDS011;26317;44.894;20.286;2024-01-15T07:55:46;14.50;;;11.45;;
40611;SDS011;26317;44.894;20.286;2024-01-15T07:58:25;18.15;;;13.05;;
40611;SDS011;26317;44.894;20.286;2024-01-15T08:01:02;18.70;;;14.00;;
40611;SDS011;26317;44.894;20.286;2024-01-15T08:03:50;17.33;;;12.98;;
40611;SDS011;26317;44.894;20.286;2024-01-15T08:06:30;20.33;;;15.88;;
40611;SDS011;26317;44.894;20.286;2024-01-15T08:09:09;24.15;;;16.40;;
40611;SDS011;26317;44.894;20.286;2024-01-15T08:11:44;22.98;;;18.38;;
40611;SDS011;26317;44.894;20.286;2024-01-15T08:14:24;27.70;;;19.10;;
40611;SDS011;26317;44.894;20.286;2024-01-15T08:17:00;38.58;;;23.02;;
40611;SDS011;26317;44.894;20.286;2024-01-15T08:19:52;40.60;;;27.60;;
40611;SDS011;26317;44.894;20.286;2024-01-15T08:22:35;42.17;;;26.38;;
40611;SDS011;26317;44.894;20.286;2024-01-15T08:25:20;46.22;;;25.80;;
40611;SDS011;26317;44.894;20.286;2024-01-15T08:27:59;43.28;;;27.25;;
40611;SDS011;26317;44.894;20.286;2024-01-15T08:30:35;36.22;;;25.25;;
40611;SDS011;26317;44.894;20.286;2024-01-15T08:33:10;35.08;;;25.30;;
40611;SDS011;26317;44.894;20.286;2024-01-15T08:38:50;35.60;;;25.95;;
40611;SDS011;26317;44.894;20.286;2024-01-15T08:41:25;35.00;;;26.98;;
40611;SDS011;26317;44.894;20.286;2024-01-15T08:44:08;32.85;;;25.05;;
40611;SDS011;26317;44.894;20.286;2024-01-15T08:46:54;31.85;;;24.40;;
40611;SDS011;26317;44.894;20.286;2024-01-15T08:49:33;32.42;;;24.30;;
40611;SDS011;26317;44.894;20.286;2024-01-15T08:52:20;32.58;;;24.10;;
40611;SDS011;26317;44.894;20.286;2024-01-15T08:57:50;34.13;;;26.15;;
40611;SDS011;26317;44.894;20.286;2024-01-15T09:00:30;36.30;;;28.60;;
40611;SDS011;26317;44.894;20.286;2024-01-15T09:03:07;41.58;;;31.60;;
40611;SDS011;26317;44.894;20.286;2024-01-15T09:05:52;42.17;;;31.88;;
40611;SDS011;26317;44.894;20.286;2024-01-15T09:08:46;49.85;;;37.05;;
40611;SDS011;26317;44.894;20.286;2024-01-15T09:11:25;62.90;;;47.95;;
40611;SDS011;26317;44.894;20.286;2024-01-15T09:13:57;88.32;;;61.45;;
40611;SDS011;26317;44.894;20.286;2024-01-15T09:16:34;106.50;;;76.68;;
40611;SDS011;26317;44.894;20.286;2024-01-15T09:19:13;73.53;;;52.42;;
40611;SDS011;26317;44.894;20.286;2024-01-15T09:21:55;62.35;;;44.72;;
40611;SDS011;26317;44.894;20.286;2024-01-15T09:24:47;101.90;;;72.25;;
40611;SDS011;26317;44.894;20.286;2024-01-15T09:27:23;107.15;;;78.50;;
40611;SDS011;26317;44.894;20.286;2024-01-15T09:30:09;80.63;;;59.40;;
40611;SDS011;26317;44.894;20.286;2024-01-15T09:32:53;75.85;;;54.83;;
40611;SDS011;26317;44.894;20.286;2024-01-15T09:35:28;70.95;;;48.00;;
40611;SDS011;26317;44.894;20.286;2024-01-15T09:38:05;60.30;;;43.28;;
40611;SDS011;26317;44.894;20.286;2024-01-15T09:40:51;65.25;;;48.38;;
40611;SDS011;26317;44.894;20.286;2024-01-15T09:43:34;93.80;;;69.65;;
40611;SDS011;26317;44.894;20.286;2024-01-15T09:46:12;60.30;;;45.70;;
40611;SDS011;26317;44.894;20.286;2024-01-15T09:49:04;85.38;;;60.53;;
40611;SDS011;26317;44.894;20.286;2024-01-15T09:51:52;65.22;;;47.97;;
40611;SDS011;26317;44.894;20.286;2024-01-15T09:54:40;52.53;;;40.63;;
40611;SDS011;26317;44.894;20.286;2024-01-15T09:57:25;72.32;;;53.53;;
40611;SDS011;26317;44.894;20.286;2024-01-15T10:00:08;73.25;;;54.88;;
40611;SDS011;26317;44.894;20.286;2024-01-15T10:03:05;71.72;;;55.00;;
40611;SDS011;26317;44.894;20.286;2024-01-15T10:05:44;57.72;;;42.63;;
40611;SDS011;26317;44.894;20.286;2024-01-15T10:08:27;54.72;;;41.72;;
40611;SDS011;26317;44.894;20.286;2024-01-15T10:11:03;49.15;;;40.95;;
40611;SDS011;26317;44.894;20.286;2024-01-15T10:13:52;58.13;;;44.25;;
40611;SDS011;26317;44.894;20.286;2024-01-15T10:16:36;57.15;;;44.03;;
40611;SDS011;26317;44.894;20.286;2024-01-15T10:19:14;64.18;;;48.92;;
40611;SDS011;26317;44.894;20.286;2024-01-15T10:21:51;58.70;;;46.10;;
40611;SDS011;26317;44.894;20.286;2024-01-15T10:24:30;52.35;;;41.85;;
40611;SDS011;26317;44.894;20.286;2024-01-15T10:27:08;54.78;;;41.70;;
40611;SDS011;26317;44.894;20.286;2024-01-15T10:29:51;47.25;;;38.53;;
40611;SDS011;26317;44.894;20.286;2024-01-15T10:32:32;45.72;;;37.42;;
40611;SDS011;26317;44.894;20.286;2024-01-15T10:35:11;47.92;;;37.00;;
40611;SDS011;26317;44.894;20.286;2024-01-15T10:37:56;47.55;;;36.75;;
40611;SDS011;26317;44.894;20.286;2024-01-15T10:40:33;43.17;;;34.25;;
40611;SDS011;26317;44.894;20.286;2024-01-15T10:43:16;42.65;;;34.83;;
40611;SDS011;26317;44.894;20.286;2024-01-15T10:46:08;53.38;;;38.78;;
40611;SDS011;26317;44.894;20.286;2024-01-15T10:48:55;54.58;;;39.50;;
40611;SDS011;26317;44.894;20.286;2024-01-15T10:51:36;52.33;;;38.17;;
40611;SDS011;26317;44.894;20.286;2024-01-15T10:54:15;51.78;;;36.58;;
40611;SDS011;26317;44.894;20.286;2024-01-15T10:56:55;47.45;;;35.53;;
40611;SDS011;26317;44.894;20.286;2024-01-15T10:59:56;51.42;;;37.75;;
40611;SDS011;26317;44.894;20.286;2024-01-15T11:02:41;49.05;;;34.58;;
40611;SDS011;26317;44.894;20.286;2024-01-15T11:05:19;42.72;;;32.33;;
40611;SDS011;26317;44.894;20.286;2024-01-15T11:08:01;39.10;;;28.52;;
40611;SDS011;26317;44.894;20.286;2024-01-15T11:10:39;37.60;;;28.73;;
40611;SDS011;26317;44.894;20.286;2024-01-15T11:13:39;35.17;;;27.48;;
40611;SDS011;26317;44.894;20.286;2024-01-15T11:16:26;32.88;;;27.45;;
40611;SDS011;26317;44.894;20.286;2024-01-15T11:19:48;49.88;;;36.65;;
40611;SDS011;26317;44.894;20.286;2024-01-15T11:25:26;38.80;;;29.15;;
40611;SDS011;26317;44.894;20.286;2024-01-15T11:31:28;44.25;;;30.55;;
40611;SDS011;26317;44.894;20.286;2024-01-15T11:34:04;42.10;;;29.45;;
40611;SDS011;26317;44.894;20.286;2024-01-15T11:40:01;79.47;;;47.30;;
40611;SDS011;26317;44.894;20.286;2024-01-15T11:42:47;93.65;;;60.70;;
40611;SDS011;26317;44.894;20.286;2024-01-15T11:45:24;89.47;;;57.47;;
40611;SDS011;26317;44.894;20.286;2024-01-15T11:48:09;75.97;;;51.55;;
40611;SDS011;26317;44.894;20.286;2024-01-15T11:51:00;60.63;;;42.30;;
40611;SDS011;26317;44.894;20.286;2024-01-15T11:53:43;53.42;;;42.83;;
40611;SDS011;26317;44.894;20.286;2024-01-15T11:56:29;65.85;;;43.75;;
40611;SDS011;26317;44.894;20.286;2024-01-15T11:59:10;55.95;;;40.72;;
40611;SDS011;26317;44.894;20.286;2024-01-15T12:01:49;57.70;;;38.45;;
40611;SDS011;26317;44.894;20.286;2024-01-15T12:04:28;52.97;;;40.55;;
40611;SDS011;26317;44.894;20.286;2024-01-15T12:07:13;57.03;;;40.28;;
40611;SDS011;26317;44.894;20.286;2024-01-15T12:10:07;55.25;;;39.90;;
40611;SDS011;26317;44.894;20.286;2024-01-15T12:13:00;68.15;;;43.63;;
40611;SDS011;26317;44.894;20.286;2024-01-15T12:15:47;61.20;;;44.33;;
40611;SDS011;26317;44.894;20.286;2024-01-15T12:18:47;85.45;;;61.30;;
40611;SDS011;26317;44.894;20.286;2024-01-15T12:21:26;97.18;;;68.15;;
40611;SDS011;26317;44.894;20.286;2024-01-15T12:24:14;87.00;;;63.67;;
40611;SDS011;26317;44.894;20.286;2024-01-15T12:27:11;87.95;;;59.13;;
40611;SDS011;26317;44.894;20.286;2024-01-15T12:29:51;76.30;;;53.43;;
40611;SDS011;26317;44.894;20.286;2024-01-15T12:32:28;76.57;;;53.20;;
40611;SDS011;26317;44.894;20.286;2024-01-15T12:35:14;74.78;;;51.38;;
40611;SDS011;26317;44.894;20.286;2024-01-15T12:37:50;62.55;;;42.28;;
40611;SDS011;26317;44.894;20.286;2024-01-15T12:40:34;52.80;;;37.83;;
40611;SDS011;26317;44.894;20.286;2024-01-15T12:43:18;53.17;;;37.78;;
40611;SDS011;26317;44.894;20.286;2024-01-15T12:45:58;53.22;;;38.17;;
40611;SDS011;26317;44.894;20.286;2024-01-15T12:48:34;48.08;;;37.10;;
40611;SDS011;26317;44.894;20.286;2024-01-15T12:51:12;46.80;;;34.05;;
40611;SDS011;26317;44.894;20.286;2024-01-15T12:53:53;47.13;;;36.55;;
40611;SDS011;26317;44.894;20.286;2024-01-15T12:56:35;69.30;;;48.40;;
40611;SDS011;26317;44.894;20.286;2024-01-15T12:59:19;59.13;;;41.65;;
40611;SDS011;26317;44.894;20.286;2024-01-15T13:02:04;52.90;;;37.80;;
40611;SDS011;26317;44.894;20.286;2024-01-15T13:04:40;51.55;;;38.53;;
40611;SDS011;26317;44.894;20.286;2024-01-15T13:07:23;53.40;;;40.78;;
40611;SDS011;26317;44.894;20.286;2024-01-15T13:10:04;53.15;;;41.97;;
40611;SDS011;26317;44.894;20.286;2024-01-15T13:12:43;55.60;;;44.45;;
40611;SDS011;26317;44.894;20.286;2024-01-15T13:15:39;64.80;;;46.60;;
40611;SDS011;26317;44.894;20.286;2024-01-15T13:18:17;60.33;;;46.78;;
40611;SDS011;26317;44.894;20.286;2024-01-15T13:20:54;71.05;;;51.50;;
40611;SDS011;26317;44.894;20.286;2024-01-15T13:23:33;67.50;;;52.67;;
40611;SDS011;26317;44.894;20.286;2024-01-15T13:26:19;70.75;;;54.45;;
40611;SDS011;26317;44.894;20.286;2024-01-15T13:28:55;77.40;;;57.33;;
40611;SDS011;26317;44.894;20.286;2024-01-15T13:31:38;75.50;;;56.80;;
40611;SDS011;26317;44.894;20.286;2024-01-15T13:34:35;81.63;;;60.17;;
40611;SDS011;26317;44.894;20.286;2024-01-15T13:37:11;80.32;;;61.28;;
40611;SDS011;26317;44.894;20.286;2024-01-15T13:39:45;79.63;;;60.92;;
40611;SDS011;26317;44.894;20.286;2024-01-15T13:42:20;80.75;;;60.90;;
40611;SDS011;26317;44.894;20.286;2024-01-15T13:44:59;98.22;;;74.63;;
40611;SDS011;26317;44.894;20.286;2024-01-15T13:47:44;147.05;;;108.55;;
40611;SDS011;26317;44.894;20.286;2024-01-15T13:50:19;90.32;;;56.90;;
40611;SDS011;26317;44.894;20.286;2024-01-15T13:53:01;55.47;;;42.47;;
40611;SDS011;26317;44.894;20.286;2024-01-15T13:55:41;59.05;;;45.13;;
40611;SDS011;26317;44.894;20.286;2024-01-15T13:58:24;62.42;;;47.25;;
40611;SDS011;26317;44.894;20.286;2024-01-15T14:01:02;64.18;;;47.88;;
40611;SDS011;26317;44.894;20.286;2024-01-15T14:03:59;71.30;;;49.42;;
40611;SDS011;26317;44.894;20.286;2024-01-15T14:06:37;60.00;;;47.78;;
40611;SDS011;26317;44.894;20.286;2024-01-15T14:09:18;56.97;;;43.45;;
40611;SDS011;26317;44.894;20.286;2024-01-15T14:11:55;57.20;;;45.85;;
40611;SDS011;26317;44.894;20.286;2024-01-15T14:14:48;55.65;;;43.05;;
40611;SDS011;26317;44.894;20.286;2024-01-15T14:17:22;66.93;;;47.60;;
40611;SDS011;26317;44.894;20.286;2024-01-15T14:20:06;54.67;;;40.95;;
40611;SDS011;26317;44.894;20.286;2024-01-15T14:22:55;51.90;;;41.20;;
40611;SDS011;26317;44.894;20.286;2024-01-15T14:25:39;56.63;;;40.97;;
40611;SDS011;26317;44.894;20.286;2024-01-15T14:28:14;56.53;;;42.03;;
40611;SDS011;26317;44.894;20.286;2024-01-15T14:30:53;54.25;;;41.75;;
40611;SDS011;26317;44.894;20.286;2024-01-15T14:33:29;53.83;;;42.75;;
40611;SDS011;26317;44.894;20.286;2024-01-15T14:36:16;55.50;;;42.35;;
40611;SDS011;26317;44.894;20.286;2024-01-15T14:38:58;54.65;;;41.78;;
40611;SDS011;26317;44.894;20.286;2024-01-15T14:44:13;59.47;;;44.40;;
40611;SDS011;26317;44.894;20.286;2024-01-15T14:46:55;57.33;;;43.72;;
40611;SDS011;26317;44.894;20.286;2024-01-15T14:49:31;58.20;;;44.42;;
40611;SDS011;26317;44.894;20.286;2024-01-15T14:52:30;59.67;;;42.67;;
40611;SDS011;26317;44.894;20.286;2024-01-15T14:55:10;58.13;;;43.05;;
40611;SDS011;26317;44.894;20.286;2024-01-15T14:57:47;57.35;;;43.20;;
40611;SDS011;26317;44.894;20.286;2024-01-15T15:00:29;57.47;;;43.67;;
40611;SDS011;26317;44.894;20.286;2024-01-15T15:03:07;61.67;;;43.92;;
40611;SDS011;26317;44.894;20.286;2024-01-15T15:05:45;59.17;;;43.50;;
40611;SDS011;26317;44.894;20.286;2024-01-15T15:08:39;57.85;;;43.40;;
40611;SDS011;26317;44.894;20.286;2024-01-15T15:11:16;48.72;;;38.83;;
40611;SDS011;26317;44.894;20.286;2024-01-15T15:13:53;50.88;;;40.25;;
40611;SDS011;26317;44.894;20.286;2024-01-15T15:16:29;50.03;;;38.88;;
40611;SDS011;26317;44.894;20.286;2024-01-15T15:19:05;50.63;;;41.03;;
40611;SDS011;26317;44.894;20.286;2024-01-15T15:21:41;47.40;;;37.38;;
40611;SDS011;26317;44.894;20.286;2024-01-15T15:24:32;48.47;;;38.63;;
40611;SDS011;26317;44.894;20.286;2024-01-15T15:27:11;52.80;;;39.10;;
40611;SDS011;26317;44.894;20.286;2024-01-15T15:30:13;53.45;;;38.92;;
40611;SDS011;26317;44.894;20.286;2024-01-15T15:32:54;44.03;;;36.20;;
40611;SDS011;26317;44.894;20.286;2024-01-15T15:35:36;46.45;;;37.25;;
40611;SDS011;26317;44.894;20.286;2024-01-15T15:38:19;46.95;;;38.33;;
40611;SDS011;26317;44.894;20.286;2024-01-15T15:41:12;46.05;;;36.78;;
40611;SDS011;26317;44.894;20.286;2024-01-15T15:43:56;42.78;;;35.35;;
40611;SDS011;26317;44.894;20.286;2024-01-15T15:46:42;49.00;;;37.42;;
40611;SDS011;26317;44.894;20.286;2024-01-15T15:49:23;42.83;;;35.60;;
40611;SDS011;26317;44.894;20.286;2024-01-15T15:52:06;42.83;;;33.65;;
40611;SDS011;26317;44.894;20.286;2024-01-15T15:54:49;40.10;;;31.73;;
40611;SDS011;26317;44.894;20.286;2024-01-15T15:57:29;45.97;;;34.00;;
40611;SDS011;26317;44.894;20.286;2024-01-15T16:00:10;49.17;;;34.63;;
40611;SDS011;26317;44.894;20.286;2024-01-15T16:02:48;43.13;;;34.50;;
40611;SDS011;26317;44.894;20.286;2024-01-15T16:05:33;49.40;;;34.50;;